Time;durP1;ratioP1;P1;durP2;ratioP2;P2;SDS_P1;SDS_P2;PMS_P1;PMS_P2;Temp;Humidity;BMP_temperature;BMP_pressure;BME280_temperature;BME280_humidity;BME280_pressure;Samples;Min_cycle;Max_cycle;Signal;HPM_P1;HPM_P2
2021/12/28 00:00:11;;;;;;;28.10;13.60;;;1.30;99.90;;;;;;5023525;28;20345;-70
2021/12/28 00:02:38;;;;;;;29.50;14.50;;;1.30;99.90;;;;;;5019618;28;20204;-65
2021/12/28 00:05:04;;;;;;;31.27;14.13;;;1.40;99.90;;;;;;5021739;28;20179;-66
2021/12/28 00:07:30;;;;;;;25.33;14.60;;;1.30;99.90;;;;;;5019985;28;20190;-68
2021/12/28 00:09:55;;;;;;;30.77;15.43;;;1.30;99.90;;;;;;5021261;28;20189;-67
2021/12/28 00:12:22;;;;;;;28.77;14.30;;;1.30;99.90;;;;;;5021573;28;20667;-66
2021/12/28 00:15:03;;;;;;;26.83;14.77;;;1.30;99.90;;;;;;5021534;28;22824;-65
2021/12/28 00:20:13;;;;;;;26.20;13.73;;;1.30;99.90;;;;;;5019255;28;20234;-65
2021/12/28 00:22:39;;;;;;;30.50;14.07;;;1.30;99.90;;;;;;5020439;28;20316;-66
2021/12/28 00:25:05;;;;;;;29.57;15.20;;;1.40;99.90;;;;;;5022823;28;20195;-63
2021/12/28 00:27:31;;;;;;;33.57;15.43;;;1.40;99.90;;;;;;5019469;28;20572;-64
2021/12/28 00:29:58;;;;;;;28.63;13.63;;;1.30;99.90;;;;;;5019645;28;20211;-63
2021/12/28 00:32:24;;;;;;;28.70;14.83;;;1.30;99.90;;;;;;5024424;28;21308;-62
2021/12/28 00:34:49;;;;;;;28.80;15.73;;;1.30;99.90;;;;;;5022881;28;20204;-65
2021/12/28 00:37:15;;;;;;;28.53;15.03;;;1.30;99.90;;;;;;5025417;28;20193;-63
2021/12/28 00:39:41;;;;;;;27.07;14.47;;;1.30;99.90;;;;;;5024750;28;20196;-63
2021/12/28 00:42:08;;;;;;;27.90;13.80;;;1.30;99.90;;;;;;5019898;28;20189;-63
2021/12/28 00:44:34;;;;;;;28.73;13.87;;;1.30;99.90;;;;;;5021189;28;20261;-66
2021/12/28 00:47:00;;;;;;;26.67;14.47;;;1.40;99.90;;;;;;5021083;28;20193;-65
2021/12/28 00:49:25;;;;;;;29.77;15.00;;;1.40;99.90;;;;;;5021426;28;20215;-63
2021/12/28 00:51:52;;;;;;;27.90;15.17;;;1.40;99.90;;;;;;5022035;28;20224;-64
2021/12/28 00:54:18;;;;;;;28.43;15.60;;;1.40;99.90;;;;;;5025206;28;20547;-65
2021/12/28 00:56:44;;;;;;;27.77;14.40;;;1.40;99.90;;;;;;5019092;28;20196;-63
2021/12/28 00:59:09;;;;;;;31.77;15.43;;;1.40;99.90;;;;;;5019077;28;20354;-63
2021/12/28 01:04:57;;;;;;;32.23;15.77;;;1.40;99.90;;;;;;5018938;28;20185;-63
2021/12/28 01:07:40;;;;;;;30.63;15.17;;;1.40;99.90;;;;;;5021361;28;20201;-69
2021/12/28 01:10:12;;;;;;;29.47;15.13;;;1.40;99.90;;;;;;5018985;28;20187;-67
2021/12/28 01:12:38;;;;;;;27.10;13.63;;;1.40;99.90;;;;;;5016339;28;20209;-67
2021/12/28 01:15:06;;;;;;;27.97;14.67;;;1.40;99.90;;;;;;5014536;28;20204;-64
2021/12/28 01:17:33;;;;;;;30.97;14.20;;;1.50;99.90;;;;;;5019353;28;20272;-63
2021/12/28 01:20:00;;;;;;;27.83;15.27;;;1.50;99.90;;;;;;5020398;28;20667;-68
2021/12/28 01:22:25;;;;;;;34.10;15.53;;;1.60;99.90;;;;;;5022719;28;20189;-64
2021/12/28 01:24:51;;;;;;;27.90;14.43;;;1.60;99.90;;;;;;5027816;28;20196;-64
2021/12/28 01:27:17;;;;;;;29.80;15.83;;;1.60;99.90;;;;;;5021862;28;20267;-63
2021/12/28 01:29:42;;;;;;;28.50;15.23;;;1.60;99.90;;;;;;5021977;28;20188;-62
2021/12/28 01:32:08;;;;;;;30.17;14.67;;;1.60;99.90;;;;;;5022542;28;20258;-62
2021/12/28 01:34:35;;;;;;;28.67;13.83;;;1.60;99.90;;;;;;5020895;28;20195;-64
2021/12/28 01:37:01;;;;;;;27.77;13.27;;;1.60;99.90;;;;;;5022222;28;20580;-65
2021/12/28 01:39:27;;;;;;;26.23;12.70;;;1.70;99.90;;;;;;5021553;28;20197;-64
2021/12/28 01:41:53;;;;;;;30.77;14.43;;;1.70;99.90;;;;;;5021660;28;20181;-63
2021/12/28 01:44:18;;;;;;;25.83;14.20;;;1.70;99.90;;;;;;5023993;28;20189;-64
2021/12/28 01:46:44;;;;;;;31.90;15.93;;;1.70;99.90;;;;;;5023260;28;20648;-63
2021/12/28 01:49:10;;;;;;;28.63;15.07;;;1.70;99.90;;;;;;5023394;28;20224;-63
2021/12/28 01:51:36;;;;;;;32.97;15.13;;;1.80;99.90;;;;;;5021923;28;20208;-63
2021/12/28 01:54:03;;;;;;;30.47;15.03;;;1.70;99.90;;;;;;5023508;28;20199;-68
2021/12/28 01:56:38;;;;;;;26.93;14.27;;;1.80;99.90;;;;;;5018318;28;20192;-65
2021/12/28 01:59:05;;;;;;;29.70;14.20;;;1.80;99.90;;;;;;5021213;28;20586;-63
2021/12/28 02:01:32;;;;;;;26.57;13.83;;;1.80;99.90;;;;;;5022491;28;20200;-66
2021/12/28 02:10:45;;;;;;;28.67;14.43;;;1.90;99.90;;;;;;5020847;28;20223;-68
2021/12/28 02:13:28;;;;;;;26.90;14.47;;;1.90;99.90;;;;;;5021293;28;20189;-64
2021/12/28 02:15:56;;;;;;;29.53;14.93;;;2.00;99.90;;;;;;5022839;28;20187;-64
2021/12/28 02:18:24;;;;;;;27.10;14.63;;;1.90;99.90;;;;;;5022647;28;20208;-64
2021/12/28 02:33:42;;;;;;;26.60;15.37;;;1.90;99.90;;;;;;4687893;28;20227;-63
2021/12/28 02:36:08;;;;;;;30.63;15.03;;;1.90;99.90;;;;;;5021376;28;20235;-63
2021/12/28 02:38:34;;;;;;;31.07;15.67;;;1.90;99.90;;;;;;5020196;28;20192;-66
2021/12/28 02:41:00;;;;;;;29.43;13.83;;;1.90;99.90;;;;;;5019695;28;20181;-63
2021/12/28 02:43:26;;;;;;;27.20;15.27;;;1.80;99.90;;;;;;5016661;28;20236;-64
2021/12/28 02:45:55;;;;;;;28.07;14.70;;;1.90;99.90;;;;;;5016716;28;20196;-63
2021/12/28 02:48:21;;;;;;;29.40;15.07;;;1.90;99.90;;;;;;5015208;28;20185;-63
2021/12/28 02:50:50;;;;;;;35.43;15.67;;;1.90;99.90;;;;;;5013303;28;20278;-71
2021/12/28 02:53:18;;;;;;;29.20;16.03;;;1.90;99.90;;;;;;5014041;28;20264;-64
2021/12/28 02:55:45;;;;;;;33.67;15.57;;;1.90;99.90;;;;;;5017325;28;20640;-64
2021/12/28 02:58:29;;;;;;;35.33;16.33;;;1.90;99.90;;;;;;5017420;28;20186;-64
2021/12/28 03:00:57;;;;;;;32.50;16.20;;;1.90;99.90;;;;;;5019879;28;20223;-64
2021/12/28 03:03:26;;;;;;;35.77;16.53;;;1.90;99.90;;;;;;5016399;28;20247;-64
2021/12/28 03:05:55;;;;;;;23.20;10.83;;;1.90;99.90;;;;;;5017378;28;20264;-65
2021/12/28 03:08:23;;;;;;;33.97;16.50;;;1.80;99.90;;;;;;5016219;28;20263;-64
2021/12/28 03:10:49;;;;;;;35.23;17.17;;;1.90;99.90;;;;;;5014746;28;20232;-64
2021/12/28 03:13:18;;;;;;;31.87;16.77;;;1.80;99.90;;;;;;5017615;28;20221;-62
2021/12/28 03:15:44;;;;;;;35.07;18.43;;;1.80;99.90;;;;;;5018119;28;20272;-65
2021/12/28 03:18:10;;;;;;;38.73;18.07;;;1.80;99.90;;;;;;5024160;28;20287;-64
2021/12/28 03:20:36;;;;;;;33.97;16.40;;;1.80;99.90;;;;;;5022746;28;20204;-62
2021/12/28 03:23:03;;;;;;;37.30;18.00;;;1.80;99.90;;;;;;5022726;28;20197;-64
2021/12/28 03:25:30;;;;;;;35.17;17.00;;;1.80;99.90;;;;;;5020884;28;20201;-64
2021/12/28 03:27:56;;;;;;;41.57;19.23;;;1.80;99.90;;;;;;5023146;28;20713;-63
2021/12/28 03:31:08;;;;;;;42.00;19.17;;;1.70;99.90;;;;;;5024185;28;20212;-64
2021/12/28 03:33:36;;;;;;;33.97;18.43;;;1.70;99.90;;;;;;5024432;28;20228;-65
2021/12/28 03:36:03;;;;;;;41.20;20.03;;;1.60;99.90;;;;;;5022619;28;20192;-67
2021/12/28 03:38:29;;;;;;;38.33;19.87;;;1.70;99.90;;;;;;5025351;28;20203;-65
2021/12/28 03:40:55;;;;;;;38.77;19.70;;;1.70;99.90;;;;;;5026324;28;20212;-64
2021/12/28 03:43:21;;;;;;;42.63;20.53;;;1.70;99.90;;;;;;5020516;28;20211;-64
2021/12/28 03:45:48;;;;;;;36.67;18.77;;;1.70;99.90;;;;;;5035314;28;20200;-63
2021/12/28 03:48:14;;;;;;;36.47;18.60;;;1.70;99.90;;;;;;5024994;28;20189;-64
2021/12/28 03:50:40;;;;;;;39.07;19.37;;;1.60;99.90;;;;;;5022205;28;20185;-63
2021/12/28 03:53:07;;;;;;;37.57;17.47;;;1.60;99.90;;;;;;5019962;28;20599;-63
2021/12/28 03:55:33;;;;;;;40.73;19.80;;;1.70;99.90;;;;;;5020552;28;20201;-64
2021/12/28 03:58:00;;;;;;;41.73;19.23;;;1.60;99.90;;;;;;5022242;28;20267;-64
2021/12/28 04:00:29;;;;;;;41.43;20.40;;;1.60;99.90;;;;;;5021952;28;20224;-69
2021/12/28 04:02:55;;;;;;;38.90;18.80;;;1.60;99.90;;;;;;5023861;28;20194;-62
2021/12/28 04:05:21;;;;;;;38.50;20.40;;;1.60;99.90;;;;;;5023367;28;20184;-64
2021/12/28 04:07:48;;;;;;;43.93;20.57;;;1.60;99.90;;;;;;5020802;28;20201;-64
2021/12/28 04:10:16;;;;;;;40.57;20.07;;;1.60;99.90;;;;;;5019599;28;20189;-67
2021/12/28 04:12:42;;;;;;;38.63;19.30;;;1.60;99.90;;;;;;5019609;28;20311;-63
2021/12/28 04:15:11;;;;;;;39.13;18.93;;;1.50;99.90;;;;;;5018757;28;20185;-63
2021/12/28 04:17:38;;;;;;;42.37;20.73;;;1.60;99.90;;;;;;5020581;28;20255;-63
2021/12/28 04:20:12;;;;;;;36.90;18.67;;;1.60;99.90;;;;;;5019343;28;20200;-65
2021/12/28 04:22:39;;;;;;;39.03;19.67;;;1.60;99.90;;;;;;5021250;28;20184;-64
2021/12/28 04:25:06;;;;;;;35.63;18.23;;;1.60;99.90;;;;;;5022717;28;20187;-63
2021/12/28 04:27:32;;;;;;;36.70;18.30;;;1.60;99.90;;;;;;5023875;28;20204;-66
2021/12/28 04:29:58;;;;;;;35.63;17.33;;;1.60;99.90;;;;;;5024004;28;20181;-64
2021/12/28 04:32:24;;;;;;;40.30;18.40;;;1.60;99.90;;;;;;5018707;28;20244;-62
2021/12/28 04:34:50;;;;;;;37.57;17.63;;;1.60;99.90;;;;;;5018969;28;20663;-63
2021/12/28 04:37:16;;;;;;;37.50;18.80;;;1.60;99.90;;;;;;5019470;28;20189;-64
2021/12/28 04:39:42;;;;;;;36.90;18.43;;;1.60;99.90;;;;;;5015222;28;20204;-64
2021/12/28 04:42:07;;;;;;;39.93;18.27;;;1.70;99.90;;;;;;5018350;28;20197;-63
2021/12/28 04:44:35;;;;;;;41.07;20.17;;;1.70;99.90;;;;;;5017758;28;20229;-64
2021/12/28 04:47:00;;;;;;;39.60;19.60;;;1.60;99.90;;;;;;5018184;28;20220;-64
2021/12/28 04:49:28;;;;;;;44.90;20.23;;;1.60;99.90;;;;;;5016385;28;20181;-65
2021/12/28 04:51:54;;;;;;;41.13;18.47;;;1.60;99.90;;;;;;5017884;28;20217;-67
2021/12/28 04:54:21;;;;;;;45.87;20.37;;;1.50;99.90;;;;;;5020371;28;20185;-65
2021/12/28 04:56:47;;;;;;;42.40;19.80;;;1.50;99.90;;;;;;5019482;28;20188;-64
2021/12/28 04:59:17;;;;;;;38.67;17.97;;;1.50;99.90;;;;;;5019607;28;20195;-63
2021/12/28 05:01:43;;;;;;;39.30;19.80;;;1.50;99.90;;;;;;5016954;28;20189;-66
2021/12/28 05:04:09;;;;;;;36.77;18.57;;;1.50;99.90;;;;;;5016735;28;20200;-66
2021/12/28 05:06:36;;;;;;;41.03;19.17;;;1.40;99.90;;;;;;5016254;28;20228;-66
2021/12/28 05:09:05;;;;;;;37.67;18.53;;;1.50;99.90;;;;;;5016964;28;20196;-64
2021/12/28 05:11:34;;;;;;;37.87;18.77;;;1.50;99.90;;;;;;5014909;28;20213;-64
2021/12/28 05:14:00;;;;;;;34.83;17.53;;;1.40;99.90;;;;;;5019072;28;20190;-63
2021/12/28 05:16:30;;;;;;;37.33;19.10;;;1.40;99.90;;;;;;5017009;28;20223;-69
2021/12/28 05:18:56;;;;;;;37.57;17.93;;;1.40;99.90;;;;;;5018480;28;20188;-66
2021/12/28 05:21:22;;;;;;;35.13;16.80;;;1.30;99.90;;;;;;5018176;28;20212;-64
2021/12/28 05:23:48;;;;;;;33.97;16.23;;;1.30;99.90;;;;;;5020075;28;20293;-64
2021/12/28 05:26:14;;;;;;;31.63;17.00;;;1.30;99.90;;;;;;5033918;28;20194;-63
2021/12/28 05:28:39;;;;;;;37.80;18.60;;;1.30;99.90;;;;;;5018833;28;20189;-64
2021/12/28 05:31:05;;;;;;;37.20;17.90;;;1.30;99.90;;;;;;5016931;28;20213;-66
2021/12/28 05:33:31;;;;;;;33.47;17.30;;;1.30;99.90;;;;;;5015982;28;20723;-67
2021/12/28 05:35:57;;;;;;;33.30;17.20;;;1.30;99.90;;;;;;5020198;28;20229;-66
2021/12/28 05:38:22;;;;;;;33.70;17.03;;;1.30;99.90;;;;;;5017165;28;20636;-63
2021/12/28 05:40:48;;;;;;;31.30;15.43;;;1.30;99.90;;;;;;5024459;28;21890;-63
2021/12/28 05:43:14;;;;;;;36.53;16.60;;;1.30;99.90;;;;;;5018459;28;20234;-66
2021/12/28 05:45:40;;;;;;;37.13;16.77;;;1.30;99.90;;;;;;5019744;28;20197;-63
2021/12/28 05:48:06;;;;;;;38.90;16.53;;;1.20;99.90;;;;;;5021544;28;20287;-63
2021/12/28 05:50:32;;;;;;;37.00;17.83;;;1.20;99.90;;;;;;5017266;28;20267;-65
2021/12/28 05:52:57;;;;;;;33.50;16.27;;;1.40;99.90;;;;;;5018186;28;20671;-64
2021/12/28 05:55:23;;;;;;;36.03;16.53;;;1.20;99.90;;;;;;5018058;28;20197;-63
2021/12/28 05:57:49;;;;;;;37.90;15.50;;;1.30;99.90;;;;;;5016785;28;20201;-64
2021/12/28 06:00:16;;;;;;;35.17;16.90;;;1.30;99.90;;;;;;5018378;28;20185;-65
2021/12/28 06:02:41;;;;;;;35.23;16.50;;;1.20;99.90;;;;;;5020621;28;20727;-64
2021/12/28 06:05:08;;;;;;;39.97;16.87;;;1.30;99.90;;;;;;5020199;28;20227;-63
2021/12/28 06:07:34;;;;;;;33.97;15.97;;;1.30;99.90;;;;;;5018031;28;20189;-63
2021/12/28 06:10:00;;;;;;;34.90;15.50;;;1.30;99.90;;;;;;5020899;28;20282;-64
2021/12/28 06:12:25;;;;;;;31.47;15.90;;;1.20;99.90;;;;;;5022228;28;20213;-66
2021/12/28 06:14:52;;;;;;;36.10;16.37;;;1.20;99.90;;;;;;5022073;28;20677;-63
2021/12/28 06:17:18;;;;;;;34.00;16.00;;;1.20;99.90;;;;;;5019449;28;20293;-63
2021/12/28 06:19:43;;;;;;;37.37;16.57;;;1.30;99.90;;;;;;5019285;28;20716;-63
2021/12/28 06:22:09;;;;;;;32.90;15.37;;;1.20;99.90;;;;;;5016474;28;20225;-64
2021/12/28 06:24:35;;;;;;;31.47;15.43;;;1.20;99.90;;;;;;5018265;28;20271;-63
2021/12/28 06:27:01;;;;;;;31.93;15.57;;;1.30;99.90;;;;;;5017138;28;20190;-65
2021/12/28 06:29:27;;;;;;;30.50;13.40;;;1.30;99.90;;;;;;5016663;28;20521;-65
2021/12/28 06:31:52;;;;;;;33.80;15.63;;;1.30;99.90;;;;;;5016195;28;20236;-64
2021/12/28 06:34:18;;;;;;;34.20;15.47;;;1.30;99.90;;;;;;5023110;28;20182;-67
2021/12/28 06:36:44;;;;;;;33.93;16.47;;;1.30;99.90;;;;;;5021460;28;20185;-70
2021/12/28 06:39:11;;;;;;;31.70;14.80;;;1.30;99.90;;;;;;5023610;28;20186;-65
2021/12/28 06:41:38;;;;;;;31.87;14.87;;;1.30;99.90;;;;;;5020846;28;20182;-68
2021/12/28 06:44:05;;;;;;;34.53;16.47;;;1.30;99.90;;;;;;5017734;28;20189;-64
2021/12/28 06:46:31;;;;;;;33.63;14.80;;;1.40;99.90;;;;;;5022720;28;21483;-66
2021/12/28 06:48:57;;;;;;;36.40;16.70;;;1.30;99.90;;;;;;5018244;28;20264;-66
2021/12/28 06:51:22;;;;;;;31.27;15.30;;;1.40;99.90;;;;;;5021388;28;20216;-65
2021/12/28 06:53:48;;;;;;;31.77;15.97;;;1.40;99.90;;;;;;5025580;28;20196;-62
2021/12/28 06:56:14;;;;;;;30.83;15.10;;;1.40;99.90;;;;;;5020538;28;20192;-64
2021/12/28 06:58:40;;;;;;;24.30;13.60;;;1.40;99.90;;;;;;5021293;28;20263;-68
2021/12/28 07:01:07;;;;;;;30.83;14.67;;;1.50;99.90;;;;;;5022105;28;20267;-69
2021/12/28 07:03:32;;;;;;;30.97;14.30;;;1.50;99.90;;;;;;5024213;28;20196;-64
2021/12/28 07:05:58;;;;;;;35.03;14.63;;;1.40;99.90;;;;;;5025761;28;20376;-63
2021/12/28 07:08:24;;;;;;;33.00;15.00;;;1.50;99.90;;;;;;5022162;28;20200;-63
2021/12/28 07:10:50;;;;;;;28.07;14.03;;;1.60;99.90;;;;;;5019785;28;20649;-68
2021/12/28 07:13:16;;;;;;;26.83;13.90;;;1.60;99.90;;;;;;5016663;28;20192;-64
2021/12/28 07:15:41;;;;;;;33.67;15.87;;;1.60;99.90;;;;;;5022621;28;20188;-63
2021/12/28 07:18:07;;;;;;;33.40;14.97;;;1.60;99.90;;;;;;5014863;28;20197;-64
2021/12/28 07:20:33;;;;;;;28.70;13.63;;;1.60;99.90;;;;;;5018143;28;20671;-64
2021/12/28 07:22:58;;;;;;;34.73;13.63;;;1.60;99.90;;;;;;5018450;28;20181;-62
2021/12/28 07:25:24;;;;;;;34.80;15.87;;;1.70;99.90;;;;;;5021390;28;20181;-67
2021/12/28 07:27:51;;;;;;;33.17;14.50;;;1.70;99.90;;;;;;5018375;28;20181;-66
2021/12/28 07:30:16;;;;;;;35.28;15.05;;;1.70;99.90;;;;;;5020325;28;20441;-65
2021/12/28 07:32:42;;;;;;;33.50;14.73;;;1.70;99.90;;;;;;5023554;28;20601;-63
2021/12/28 07:35:10;;;;;;;26.67;11.03;;;1.70;99.90;;;;;;5023671;28;20182;-67
2021/12/28 07:37:36;;;;;;;30.10;14.07;;;1.70;99.90;;;;;;5018178;28;20204;-65
2021/12/28 07:40:04;;;;;;;28.67;13.63;;;1.80;99.90;;;;;;5017862;28;20605;-64
2021/12/28 07:42:30;;;;;;;27.60;13.97;;;1.80;99.90;;;;;;5018733;28;20253;-65
2021/12/28 07:44:55;;;;;;;27.67;13.50;;;1.80;99.90;;;;;;5019826;28;20204;-67
2021/12/28 07:47:21;;;;;;;19.70;10.23;;;1.80;99.90;;;;;;5021583;28;20540;-69
2021/12/28 07:49:46;;;;;;;33.23;14.40;;;1.80;99.90;;;;;;5019643;28;20592;-70
2021/12/28 07:52:12;;;;;;;25.47;14.53;;;1.80;99.90;;;;;;5020914;28;20201;-68
2021/12/28 07:54:38;;;;;;;33.90;13.83;;;1.80;99.90;;;;;;5022761;28;20185;-65
2021/12/28 07:57:04;;;;;;;24.40;13.20;;;1.80;99.90;;;;;;5022394;28;20197;-67
2021/12/28 07:59:30;;;;;;;27.80;13.17;;;1.80;99.90;;;;;;5023569;28;20180;-63
2021/12/28 08:01:55;;;;;;;28.03;13.87;;;1.80;99.90;;;;;;5021894;28;20201;-68
2021/12/28 08:04:21;;;;;;;27.07;13.57;;;1.80;99.90;;;;;;5016916;28;20292;-63
2021/12/28 08:06:48;;;;;;;26.47;13.17;;;1.80;99.90;;;;;;5022324;28;20186;-63
2021/12/28 08:09:14;;;;;;;31.30;14.37;;;1.80;99.90;;;;;;5019415;28;20197;-65
2021/12/28 08:11:39;;;;;;;28.17;13.03;;;1.80;99.90;;;;;;5019463;28;20205;-63
2021/12/28 08:14:05;;;;;;;28.13;13.57;;;1.80;99.90;;;;;;5022000;28;20559;-64
2021/12/28 08:16:31;;;;;;;27.93;14.73;;;1.80;99.90;;;;;;5024779;28;20224;-64
2021/12/28 08:18:57;;;;;;;32.33;13.17;;;1.90;99.90;;;;;;5019591;28;20188;-64
2021/12/28 08:21:22;;;;;;;24.00;11.33;;;1.90;99.90;;;;;;5018770;28;20724;-67
2021/12/28 08:23:48;;;;;;;25.40;13.20;;;1.90;99.90;;;;;;5020058;28;20192;-64
2021/12/28 08:26:16;;;;;;;27.43;15.17;;;1.90;99.90;;;;;;5017272;28;20630;-64
2021/12/28 08:28:42;;;;;;;26.23;13.20;;;1.90;99.90;;;;;;5021647;28;20193;-63
2021/12/28 08:31:08;;;;;;;27.37;13.20;;;1.90;99.90;;;;;;5037174;28;20212;-63
2021/12/28 08:33:34;;;;;;;26.17;13.33;;;1.90;99.90;;;;;;5021513;28;20568;-65
2021/12/28 08:35:59;;;;;;;26.20;13.40;;;1.90;99.90;;;;;;5022923;28;20196;-64
2021/12/28 08:38:25;;;;;;;22.80;12.40;;;1.90;99.90;;;;;;5022991;28;20279;-66
2021/12/28 08:40:51;;;;;;;25.80;12.87;;;1.90;99.90;;;;;;5020641;28;20192;-66
2021/12/28 08:43:16;;;;;;;27.47;13.47;;;1.90;99.90;;;;;;5022606;28;20177;-65
2021/12/28 08:49:04;;;;;;;29.67;15.47;;;1.90;99.90;;;;;;5018097;28;20184;-64
2021/12/28 08:51:30;;;;;;;24.57;12.60;;;2.00;99.90;;;;;;5021154;28;20209;-65
2021/12/28 08:53:57;;;;;;;19.57;10.40;;;2.00;99.90;;;;;;5016860;28;20199;-64
2021/12/28 08:56:23;;;;;;;23.87;12.73;;;2.00;99.90;;;;;;5019066;28;20526;-70
2021/12/28 08:58:48;;;;;;;26.00;13.60;;;2.10;99.90;;;;;;5019661;28;20281;-70
2021/12/28 09:01:14;;;;;;;24.90;13.20;;;4.00;99.90;;;;;;5020371;28;20198;-69
2021/12/28 09:03:40;;;;;;;18.40;9.47;;;4.00;99.90;;;;;;5020107;28;20271;-70
2021/12/28 09:06:05;;;;;;;16.00;8.87;;;4.10;99.90;;;;;;5019907;28;20220;-66
2021/12/28 09:08:32;;;;;;;19.17;9.60;;;3.60;99.90;;;;;;5017783;28;20226;-63
2021/12/28 09:10:57;;;;;;;18.57;9.13;;;2.50;99.90;;;;;;5017332;28;20220;-65
2021/12/28 09:13:23;;;;;;;15.63;8.53;;;2.30;99.90;;;;;;5020315;28;20193;-64
2021/12/28 09:15:49;;;;;;;20.50;12.07;;;2.20;99.90;;;;;;5019915;28;20655;-65
2021/12/28 09:18:14;;;;;;;24.07;13.27;;;2.30;99.90;;;;;;5017247;28;20192;-64
2021/12/28 09:20:40;;;;;;;23.40;11.33;;;2.30;99.90;;;;;;5024587;28;20188;-67
2021/12/28 09:23:08;;;;;;;17.10;8.10;;;2.30;99.90;;;;;;5030629;28;20897;-66
2021/12/28 09:25:34;;;;;;;22.30;12.73;;;2.40;99.90;;;;;;5030899;28;20180;-64
2021/12/28 09:28:00;;;;;;;23.77;11.97;;;2.40;99.90;;;;;;5026744;28;20204;-65
2021/12/28 09:30:25;;;;;;;27.90;11.93;;;2.40;99.90;;;;;;5028550;28;20189;-63
2021/12/28 09:32:52;;;;;;;23.67;12.13;;;2.40;99.90;;;;;;5022595;28;20599;-65
2021/12/28 09:35:18;;;;;;;23.70;12.27;;;2.50;99.90;;;;;;5028211;28;20196;-67
2021/12/28 09:37:44;;;;;;;25.20;12.50;;;2.50;99.90;;;;;;5026374;28;20177;-65
2021/12/28 09:40:11;;;;;;;20.93;10.77;;;2.50;99.90;;;;;;5023161;28;20178;-66
2021/12/28 09:42:37;;;;;;;27.90;14.03;;;2.60;99.90;;;;;;5025523;28;20192;-64
2021/12/28 09:45:09;;;;;;;26.30;12.53;;;2.60;99.90;;;;;;5017616;28;21174;-64
2021/12/28 09:47:35;;;;;;;23.43;12.80;;;2.60;99.90;;;;;;5017621;28;20207;-68
2021/12/28 09:50:01;;;;;;;17.30;8.00;;;2.60;99.90;;;;;;5018411;28;20807;-65
2021/12/28 09:52:27;;;;;;;22.17;11.17;;;2.70;99.90;;;;;;5020100;28;20216;-66
2021/12/28 09:54:53;;;;;;;25.43;12.47;;;2.80;99.90;;;;;;5018459;28;20370;-66
2021/12/28 09:57:19;;;;;;;22.30;11.57;;;2.80;99.90;;;;;;5020009;28;20196;-66
2021/12/28 09:59:46;;;;;;;20.50;11.63;;;2.80;99.90;;;;;;5020369;28;20178;-67
2021/12/28 10:02:12;;;;;;;21.10;11.40;;;2.80;99.90;;;;;;5019448;28;20192;-65
2021/12/28 10:04:56;;;;;;;23.87;11.67;;;2.80;99.90;;;;;;5017084;28;20213;-68
2021/12/28 10:07:25;;;;;;;23.03;12.10;;;2.90;99.90;;;;;;5018103;28;20185;-64
2021/12/28 10:09:55;;;;;;;18.97;10.57;;;2.90;99.90;;;;;;5017782;28;20667;-65
2021/12/28 10:12:37;;;;;;;20.30;10.23;;;2.90;99.90;;;;;;5021159;28;20220;-62
2021/12/28 10:15:06;;;;;;;23.50;11.17;;;2.90;99.90;;;;;;5016332;28;20211;-68
2021/12/28 10:17:33;;;;;;;23.43;11.90;;;2.90;99.90;;;;;;5017330;28;20197;-64
2021/12/28 10:20:03;;;;;;;25.20;11.70;;;2.90;99.90;;;;;;5018037;28;20272;-65
2021/12/28 10:22:35;;;;;;;28.47;11.67;;;2.90;99.90;;;;;;5018960;28;20199;-66
2021/12/28 10:25:07;;;;;;;21.73;11.27;;;3.00;99.90;;;;;;5018373;28;20192;-67
2021/12/28 10:27:33;;;;;;;16.07;7.47;;;3.00;99.90;;;;;;5017849;28;20207;-66
2021/12/28 10:30:10;;;;;;;16.30;8.97;;;3.10;99.90;;;;;;5022765;28;20185;-68
2021/12/28 10:32:38;;;;;;;18.20;8.13;;;3.10;99.90;;;;;;5020541;28;20250;-66
2021/12/28 10:35:38;;;;;;;17.30;9.10;;;3.10;99.90;;;;;;5021029;28;21515;-65
2021/12/28 10:38:08;;;;;;;23.07;12.53;;;3.00;99.90;;;;;;5016934;28;20200;-68
2021/12/28 10:40:43;;;;;;;24.40;11.63;;;3.00;99.90;;;;;;5021677;28;20189;-65
2021/12/28 10:43:17;;;;;;;16.40;7.43;;;3.10;99.90;;;;;;5018920;28;20197;-66
2021/12/28 10:45:45;;;;;;;16.13;9.83;;;3.10;99.90;;;;;;5019796;28;20556;-68
2021/12/28 10:48:27;;;;;;;15.47;8.13;;;3.10;99.90;;;;;;5020890;28;20189;-70
2021/12/28 10:51:02;;;;;;;23.00;11.60;;;3.10;99.90;;;;;;5019878;28;20196;-67
2021/12/28 10:53:38;;;;;;;19.27;10.95;;;3.10;99.90;;;;;;5020037;28;20443;-69
2021/12/28 10:56:09;;;;;;;14.80;7.67;;;3.10;99.90;;;;;;5019618;28;20186;-65
2021/12/28 10:58:42;;;;;;;17.10;9.43;;;3.10;99.90;;;;;;5020483;28;20193;-65
2021/12/28 11:01:10;;;;;;;16.23;9.23;;;3.10;99.90;;;;;;5027391;28;20178;-66
2021/12/28 11:03:38;;;;;;;20.97;11.03;;;3.10;99.90;;;;;;5020443;28;20197;-67
2021/12/28 11:06:14;;;;;;;18.80;10.43;;;3.10;99.90;;;;;;5022704;28;20644;-70
2021/12/28 11:08:41;;;;;;;20.30;10.40;;;3.10;99.90;;;;;;5021868;28;20288;-65
2021/12/28 11:14:30;;;;;;;20.47;9.60;;;3.10;99.90;;;;;;5019895;28;20314;-64
2021/12/28 11:16:58;;;;;;;20.97;11.10;;;3.10;99.90;;;;;;5018721;28;20209;-65
2021/12/28 11:19:26;;;;;;;16.70;8.73;;;3.20;99.90;;;;;;5018477;28;20189;-64
2021/12/28 11:21:56;;;;;;;16.30;8.57;;;3.40;99.90;;;;;;5019949;28;20639;-63
2021/12/28 11:24:27;;;;;;;14.37;7.17;;;3.50;99.90;;;;;;5019770;28;20183;-65
2021/12/28 11:26:53;;;;;;;12.77;7.80;;;3.60;99.90;;;;;;5022671;28;20227;-65
2021/12/28 11:29:27;;;;;;;23.57;10.80;;;3.80;99.90;;;;;;5021584;28;20652;-63
2021/12/28 11:31:57;;;;;;;18.60;9.53;;;3.90;99.90;;;;;;5020769;28;20288;-64
2021/12/28 11:34:27;;;;;;;24.07;11.27;;;3.90;99.90;;;;;;5020898;28;20252;-64
2021/12/28 11:36:58;;;;;;;16.27;8.07;;;3.80;99.90;;;;;;5019778;28;20201;-64
2021/12/28 11:39:36;;;;;;;13.33;7.17;;;3.90;99.90;;;;;;5022232;28;20272;-64
2021/12/28 11:42:04;;;;;;;19.37;8.40;;;3.80;99.90;;;;;;5020135;28;20191;-65
2021/12/28 11:44:30;;;;;;;17.37;9.03;;;3.80;99.90;;;;;;5019402;28;20186;-66
2021/12/28 11:46:59;;;;;;;17.07;8.67;;;3.80;99.90;;;;;;5021360;28;20192;-64
2021/12/28 11:49:28;;;;;;;23.67;10.27;;;3.80;99.90;;;;;;5024300;28;20186;-63
2021/12/28 11:51:58;;;;;;;17.33;9.57;;;3.80;99.90;;;;;;5025059;28;20228;-64
2021/12/28 11:54:25;;;;;;;16.00;8.83;;;3.80;99.90;;;;;;5028699;28;20223;-64
2021/12/28 11:56:57;;;;;;;14.83;8.60;;;3.80;99.90;;;;;;5027706;28;20178;-70
2021/12/28 11:59:28;;;;;;;18.17;10.40;;;3.70;99.90;;;;;;5021999;28;20587;-65
2021/12/28 12:02:02;;;;;;;14.53;8.93;;;3.80;99.90;;;;;;5021026;28;20185;-65
2021/12/28 12:04:34;;;;;;;19.63;9.53;;;3.70;99.90;;;;;;5023901;28;20197;-64
2021/12/28 12:07:14;;;;;;;17.97;8.27;;;3.70;99.90;;;;;;5025195;28;20238;-64
2021/12/28 12:09:55;;;;;;;17.97;9.43;;;3.70;99.90;;;;;;5022464;28;20190;-65
2021/12/28 12:12:23;;;;;;;18.20;9.17;;;3.70;99.90;;;;;;5022698;28;20300;-64
2021/12/28 12:14:56;;;;;;;13.07;7.73;;;3.70;99.90;;;;;;5016700;28;20204;-64
2021/12/28 12:17:28;;;;;;;12.40;7.00;;;3.90;99.90;;;;;;5021723;28;20280;-66
2021/12/28 12:19:54;;;;;;;19.63;9.27;;;3.90;99.90;;;;;;5019567;28;20265;-65
2021/12/28 12:22:33;;;;;;;18.33;10.50;;;3.70;99.90;;;;;;5019945;28;20785;-65
2021/12/28 12:25:00;;;;;;;18.67;10.37;;;3.40;99.90;;;;;;5017523;28;20230;-64
2021/12/28 12:27:47;;;;;;;18.20;10.07;;;3.50;99.90;;;;;;5024648;28;20196;-66
2021/12/28 12:30:25;;;;;;;26.17;11.77;;;3.50;99.90;;;;;;5020018;28;20199;-63
2021/12/28 12:33:07;;;;;;;28.67;13.43;;;3.40;99.90;;;;;;5024869;28;20316;-70
2021/12/28 12:35:46;;;;;;;22.73;11.30;;;3.30;99.90;;;;;;5020733;28;20189;-67
2021/12/28 12:38:15;;;;;;;24.23;9.47;;;3.20;99.90;;;;;;5023829;28;20219;-64
2021/12/28 12:40:59;;;;;;;26.10;11.50;;;3.20;99.90;;;;;;5020864;28;20288;-63
2021/12/28 12:43:40;;;;;;;19.70;9.03;;;3.20;99.90;;;;;;5022218;28;20205;-65
2021/12/28 12:46:12;;;;;;;23.13;11.33;;;3.20;99.90;;;;;;5018731;28;20283;-64
2021/12/28 12:48:41;;;;;;;17.90;9.93;;;3.30;99.90;;;;;;5022465;28;20595;-66
2021/12/28 12:51:19;;;;;;;16.60;8.57;;;3.30;99.90;;;;;;5021623;28;20236;-64
2021/12/28 12:53:48;;;;;;;16.60;8.87;;;3.40;99.90;;;;;;5016969;28;20605;-65
2021/12/28 12:56:17;;;;;;;16.83;9.07;;;3.30;99.90;;;;;;5018599;28;20264;-64
2021/12/28 12:58:47;;;;;;;15.60;8.43;;;3.20;99.90;;;;;;5016689;28;20242;-63
2021/12/28 13:01:25;;;;;;;14.57;8.33;;;3.10;99.90;;;;;;5022020;28;20188;-64
2021/12/28 13:03:52;;;;;;;17.43;8.57;;;3.00;99.90;;;;;;5022058;28;20189;-64
2021/12/28 13:06:44;;;;;;;15.60;8.10;;;3.00;99.90;;;;;;5022746;28;20551;-64
2021/12/28 13:09:15;;;;;;;16.03;8.80;;;3.00;99.90;;;;;;5015070;28;20357;-65
2021/12/28 13:11:42;;;;;;;16.03;7.93;;;3.00;99.90;;;;;;5024569;28;20196;-63
2021/12/28 13:14:09;;;;;;;16.43;8.17;;;3.00;99.90;;;;;;5022201;28;20253;-63